sensor_id;sensor_type;location;lat;lon;timestamp;pressure;altitude;pressure_sealevel;temperature;humidity
44926;BME280;30662;51.210;7.656;2023-02-28T00:00:20;148563.16;;;-1.05;98.94
44926;BME280;30662;51.210;7.656;2023-02-28T00:02:47;148541.84;;;-1.14;99.55
44926;BME280;30662;51.210;7.656;2023-02-28T00:05:15;148531.78;;;-1.18;100.00
44926;BME280;30662;51.210;7.656;2023-02-28T00:07:41;148551.84;;;-1.10;100.00
44926;BME280;30662;51.210;7.656;2023-02-28T00:10:11;148549.34;;;-1.11;99.65
44926;BME280;30662;51.210;7.656;2023-02-28T00:12:38;148560.66;;;-1.06;99.58
44926;BME280;30662;51.210;7.656;2023-02-28T00:15:09;148540.59;;;-1.15;100.00
44926;BME280;30662;51.210;7.656;2023-02-28T00:17:36;148524.28;;;-1.21;100.00
44926;BME280;30662;51.210;7.656;2023-02-28T00:20:03;148512.97;;;-1.26;100.00
44926;BME280;30662;51.210;7.656;2023-02-28T00:22:30;148507.97;;;-1.28;100.00
44926;BME280;30662;51.210;7.656;2023-02-28T00:24:56;148481.59;;;-1.39;100.00
44926;BME280;30662;51.210;7.656;2023-02-28T00:27:22;148450.28;;;-1.51;100.00
44926;BME280;30662;51.210;7.656;2023-02-28T00:29:48;148470.34;;;-1.43;100.00
44926;BME280;30662;51.210;7.656;2023-02-28T00:32:14;148459.03;;;-1.48;100.00
44926;BME280;30662;51.210;7.656;2023-02-28T00:34:40;148437.72;;;-1.56;100.00
44926;BME280;30662;51.210;7.656;2023-02-28T00:37:08;148462.78;;;-1.46;100.00
44926;BME280;30662;51.210;7.656;2023-02-28T00:39:36;148492.91;;;-1.34;100.00
44926;BME280;30662;51.210;7.656;2023-02-28T00:42:03;148456.53;;;-1.49;100.00
44926;BME280;30662;51.210;7.656;2023-02-28T00:44:29;148507.97;;;-1.28;100.00
44926;BME280;30662;51.210;7.656;2023-02-28T00:46:55;148470.34;;;-1.43;100.00
44926;BME280;30662;51.210;7.656;2023-02-28T00:49:22;148474.09;;;-1.42;100.00
44926;BME280;30662;51.210;7.656;2023-02-28T00:51:48;148451.53;;;-1.51;100.00
44926;BME280;30662;51.210;7.656;2023-02-28T00:54:15;148449.03;;;-1.52;100.00
44926;BME280;30662;51.210;7.656;2023-02-28T00:56:40;148459.03;;;-1.48;100.00
44926;BME280;30662;51.210;7.656;2023-02-28T00:59:07;148462.78;;;-1.46;100.00
44926;BME280;30662;51.210;7.656;2023-02-28T01:01:34;148449.03;;;-1.52;100.00
44926;BME280;30662;51.210;7.656;2023-02-28T01:04:00;148442.72;;;-1.54;100.00
44926;BME280;30662;51.210;7.656;2023-02-28T01:06:26;148439.00;;;-1.56;100.00
44926;BME280;30662;51.210;7.656;2023-02-28T01:08:52;148460.28;;;-1.47;100.00
44926;BME280;30662;51.210;7.656;2023-02-28T01:11:18;148454.03;;;-1.50;100.00
44926;BME280;30662;51.210;7.656;2023-02-28T01:13:47;148441.50;;;-1.55;100.00
44926;BME280;30662;51.210;7.656;2023-02-28T01:16:13;148451.53;;;-1.51;100.00
44926;BME280;30662;51.210;7.656;2023-02-28T01:18:40;148456.53;;;-1.49;100.00
44926;BME280;30662;51.210;7.656;2023-02-28T01:21:14;148427.69;;;-1.60;100.00
44926;BME280;30662;51.210;7.656;2023-02-28T01:23:41;148441.50;;;-1.55;100.00
44926;BME280;30662;51.210;7.656;2023-02-28T01:26:19;148440.25;;;-1.55;100.00
44926;BME280;30662;51.210;7.656;2023-02-28T01:28:46;148469.09;;;-1.44;100.00
44926;BME280;30662;51.210;7.656;2023-02-28T01:31:12;148495.41;;;-1.33;100.00
44926;BME280;30662;51.210;7.656;2023-02-28T01:33:39;148486.66;;;-1.36;100.00
44926;BME280;30662;51.210;7.656;2023-02-28T01:36:17;148499.16;;;-1.31;100.00
44926;BME280;30662;51.210;7.656;2023-02-28T01:38:44;148500.41;;;-1.31;100.00
44926;BME280;30662;51.210;7.656;2023-02-28T01:41:23;148486.66;;;-1.36;100.00
44926;BME280;30662;51.210;7.656;2023-02-28T01:46:15;148481.59;;;-1.39;100.00
44926;BME280;30662;51.210;7.656;2023-02-28T01:48:47;148475.34;;;-1.41;100.00
44926;BME280;30662;51.210;7.656;2023-02-28T01:51:22;148491.66;;;-1.34;100.00
44926;BME280;30662;51.210;7.656;2023-02-28T01:53:52;148501.72;;;-1.30;100.00
44926;BME280;30662;51.210;7.656;2023-02-28T01:56:23;148461.53;;;-1.47;100.00
44926;BME280;30662;51.210;7.656;2023-02-28T01:58:51;148435.22;;;-1.57;100.00
44926;BME280;30662;51.210;7.656;2023-02-28T02:01:18;148466.59;;;-1.45;100.00
44926;BME280;30662;51.210;7.656;2023-02-28T02:03:51;148469.09;;;-1.44;100.00
44926;BME280;30662;51.210;7.656;2023-02-28T02:06:43;148472.84;;;-1.42;100.00
44926;BME280;30662;51.210;7.656;2023-02-28T02:09:11;148479.09;;;-1.40;100.00
44926;BME280;30662;51.210;7.656;2023-02-28T02:11:40;148459.03;;;-1.48;100.00
44926;BME280;30662;51.210;7.656;2023-02-28T02:36:19;148341.22;;;-1.96;100.00
44926;BME280;30662;51.210;7.656;2023-02-28T02:38:52;148360.03;;;-1.88;100.00
44926;BME280;30662;51.210;7.656;2023-02-28T02:41:40;148358.72;;;-1.88;100.00
44926;BME280;30662;51.210;7.656;2023-02-28T02:44:35;148388.81;;;-1.76;100.00
44926;BME280;30662;51.210;7.656;2023-02-28T02:47:11;148375.03;;;-1.82;100.00
44926;BME280;30662;51.210;7.656;2023-02-28T02:49:42;148356.22;;;-1.89;100.00
44926;BME280;30662;51.210;7.656;2023-02-28T02:52:11;148387.56;;;-1.77;100.00
44926;BME280;30662;51.210;7.656;2023-02-28T02:54:41;148343.72;;;-1.95;100.00
44926;BME280;30662;51.210;7.656;2023-02-28T02:57:34;148316.13;;;-2.06;100.00
44926;BME280;30662;51.210;7.656;2023-02-28T03:00:04;148343.72;;;-1.95;100.00
44926;BME280;30662;51.210;7.656;2023-02-28T03:02:35;148352.47;;;-1.91;100.00
44926;BME280;30662;51.210;7.656;2023-02-28T03:05:08;148343.72;;;-1.95;100.00
44926;BME280;30662;51.210;7.656;2023-02-28T03:07:38;148304.81;;;-2.10;100.00
44926;BME280;30662;51.210;7.656;2023-02-28T03:10:32;148331.16;;;-2.00;100.00
44926;BME280;30662;51.210;7.656;2023-02-28T03:26:26;148279.78;;;-2.20;100.00
44926;BME280;30662;51.210;7.656;2023-02-28T03:31:43;148273.53;;;-2.23;100.00
44926;BME280;30662;51.210;7.656;2023-02-28T03:34:21;148281.03;;;-2.20;100.00
44926;BME280;30662;51.210;7.656;2023-02-28T03:36:53;148286.03;;;-2.18;100.00
44926;BME280;30662;51.210;7.656;2023-02-28T03:39:25;148273.53;;;-2.23;100.00
44926;BME280;30662;51.210;7.656;2023-02-28T03:41:59;148289.81;;;-2.16;99.60
44926;BME280;30662;51.210;7.656;2023-02-28T03:44:33;148288.56;;;-2.17;100.00
44926;BME280;30662;51.210;7.656;2023-02-28T03:47:16;148272.28;;;-2.24;99.70
44926;BME280;30662;51.210;7.656;2023-02-28T03:49:47;148288.56;;;-2.17;99.39
44926;BME280;30662;51.210;7.656;2023-02-28T03:52:17;148271.03;;;-2.24;99.94
44926;BME280;30662;51.210;7.656;2023-02-28T03:54:48;148234.69;;;-2.39;99.74
44926;BME280;30662;51.210;7.656;2023-02-28T03:57:37;148245.94;;;-2.34;100.00
44926;BME280;30662;51.210;7.656;2023-02-28T04:00:19;148245.94;;;-2.34;99.71
44926;BME280;30662;51.210;7.656;2023-02-28T04:02:45;148268.47;;;-2.25;99.86
44926;BME280;30662;51.210;7.656;2023-02-28T04:05:11;148279.78;;;-2.20;98.84
44926;BME280;30662;51.210;7.656;2023-02-28T04:07:37;148244.69;;;-2.35;98.98
44926;BME280;30662;51.210;7.656;2023-02-28T04:10:04;148215.84;;;-2.46;98.83
44926;BME280;30662;51.210;7.656;2023-02-28T04:12:33;148228.41;;;-2.41;98.57
44926;BME280;30662;51.210;7.656;2023-02-28T04:14:59;148218.41;;;-2.45;97.88
44926;BME280;30662;51.210;7.656;2023-02-28T04:17:25;148225.88;;;-2.42;98.25
44926;BME280;30662;51.210;7.656;2023-02-28T04:19:51;148213.34;;;-2.47;98.38
44926;BME280;30662;51.210;7.656;2023-02-28T04:22:17;148193.31;;;-2.56;98.35
44926;BME280;30662;51.210;7.656;2023-02-28T04:24:43;148209.59;;;-2.49;99.06
44926;BME280;30662;51.210;7.656;2023-02-28T04:27:09;148228.41;;;-2.41;97.57
44926;BME280;30662;51.210;7.656;2023-02-28T04:29:35;148227.13;;;-2.42;96.65
44926;BME280;30662;51.210;7.656;2023-02-28T04:32:02;148205.84;;;-2.51;97.50
44926;BME280;30662;51.210;7.656;2023-02-28T04:34:30;148199.59;;;-2.53;97.24
44926;BME280;30662;51.210;7.656;2023-02-28T04:36:56;148210.84;;;-2.48;96.89
44926;BME280;30662;51.210;7.656;2023-02-28T04:39:38;148203.34;;;-2.52;96.99
44926;BME280;30662;51.210;7.656;2023-02-28T04:42:04;148167.03;;;-2.66;97.01
44926;BME280;30662;51.210;7.656;2023-02-28T04:44:30;148161.97;;;-2.68;96.58
44926;BME280;30662;51.210;7.656;2023-02-28T04:46:56;148146.97;;;-2.74;97.08
44926;BME280;30662;51.210;7.656;2023-02-28T04:49:21;148174.50;;;-2.63;97.06
44926;BME280;30662;51.210;7.656;2023-02-28T04:51:47;148156.97;;;-2.70;96.52
44926;BME280;30662;51.210;7.656;2023-02-28T04:54:15;148187.06;;;-2.58;96.72
44926;BME280;30662;51.210;7.656;2023-02-28T04:56:41;148178.28;;;-2.62;96.43
44926;BME280;30662;51.210;7.656;2023-02-28T04:59:07;148160.72;;;-2.69;97.17
44926;BME280;30662;51.210;7.656;2023-02-28T05:01:34;148189.56;;;-2.57;96.55
44926;BME280;30662;51.210;7.656;2023-02-28T05:04:01;148170.78;;;-2.65;95.98
44926;BME280;30662;51.210;7.656;2023-02-28T05:06:30;148202.09;;;-2.52;95.16
44926;BME280;30662;51.210;7.656;2023-02-28T05:08:57;148189.56;;;-2.57;95.83
44926;BME280;30662;51.210;7.656;2023-02-28T05:11:28;148170.78;;;-2.65;96.15
44926;BME280;30662;51.210;7.656;2023-02-28T05:13:55;148170.78;;;-2.65;96.17
44926;BME280;30662;51.210;7.656;2023-02-28T05:16:21;148156.97;;;-2.70;95.53
44926;BME280;30662;51.210;7.656;2023-02-28T05:18:47;148128.19;;;-2.82;95.97
44926;BME280;30662;51.210;7.656;2023-02-28T05:21:24;148138.19;;;-2.78;95.57
44926;BME280;30662;51.210;7.656;2023-02-28T05:23:51;148141.94;;;-2.77;94.84
44926;BME280;30662;51.210;7.656;2023-02-28T05:26:18;148150.72;;;-2.73;94.08
44926;BME280;30662;51.210;7.656;2023-02-28T05:28:44;148143.19;;;-2.76;94.80
44926;BME280;30662;51.210;7.656;2023-02-28T05:31:13;148155.72;;;-2.71;95.30
44926;BME280;30662;51.210;7.656;2023-02-28T05:33:39;148161.97;;;-2.68;94.51
44926;BME280;30662;51.210;7.656;2023-02-28T05:36:06;148169.53;;;-2.65;94.67
44926;BME280;30662;51.210;7.656;2023-02-28T05:38:32;148158.22;;;-2.70;93.29
44926;BME280;30662;51.210;7.656;2023-02-28T05:40:58;148153.22;;;-2.72;92.83
44926;BME280;30662;51.210;7.656;2023-02-28T05:43:24;148169.53;;;-2.65;91.78
44926;BME280;30662;51.210;7.656;2023-02-28T05:45:50;148134.44;;;-2.80;92.13
44926;BME280;30662;51.210;7.656;2023-02-28T05:48:15;148156.97;;;-2.70;92.03
44926;BME280;30662;51.210;7.656;2023-02-28T05:50:43;148173.28;;;-2.64;91.95
44926;BME280;30662;51.210;7.656;2023-02-28T05:53:10;148138.19;;;-2.78;91.64
44926;BME280;30662;51.210;7.656;2023-02-28T05:55:36;148135.69;;;-2.79;91.13
44926;BME280;30662;51.210;7.656;2023-02-28T05:58:03;148139.44;;;-2.78;90.94
44926;BME280;30662;51.210;7.656;2023-02-28T06:00:29;148110.66;;;-2.89;91.51
44926;BME280;30662;51.210;7.656;2023-02-28T06:02:55;148115.66;;;-2.87;91.37
44926;BME280;30662;51.210;7.656;2023-02-28T06:05:23;148124.41;;;-2.84;89.68
44926;BME280;30662;51.210;7.656;2023-02-28T06:07:50;148129.44;;;-2.82;89.92
44926;BME280;30662;51.210;7.656;2023-02-28T06:10:16;148113.16;;;-2.88;89.58
44926;BME280;30662;51.210;7.656;2023-02-28T06:12:41;148104.38;;;-2.92;88.83
44926;BME280;30662;51.210;7.656;2023-02-28T06:15:15;148119.41;;;-2.86;89.01
44926;BME280;30662;51.210;7.656;2023-02-28T06:17:43;148123.16;;;-2.84;89.80
44926;BME280;30662;51.210;7.656;2023-02-28T06:20:10;148128.19;;;-2.82;88.21
44926;BME280;30662;51.210;7.656;2023-02-28T06:22:39;148140.69;;;-2.77;88.07
44926;BME280;30662;51.210;7.656;2023-02-28T06:25:06;148118.16;;;-2.86;88.47
44926;BME280;30662;51.210;7.656;2023-02-28T06:27:33;148104.38;;;-2.92;88.53
44926;BME280;30662;51.210;7.656;2023-02-28T06:29:59;148110.66;;;-2.89;88.50
44926;BME280;30662;51.210;7.656;2023-02-28T06:32:25;148133.19;;;-2.80;88.47
44926;BME280;30662;51.210;7.656;2023-02-28T06:34:51;148115.66;;;-2.87;88.34
44926;BME280;30662;51.210;7.656;2023-02-28T06:37:17;148108.13;;;-2.90;88.91
44926;BME280;30662;51.210;7.656;2023-02-28T06:39:43;148123.16;;;-2.84;88.57
44926;BME280;30662;51.210;7.656;2023-02-28T06:42:10;148131.94;;;-2.81;87.53
44926;BME280;30662;51.210;7.656;2023-02-28T06:44:36;148080.59;;;-3.01;86.85
44926;BME280;30662;51.210;7.656;2023-02-28T06:47:03;148083.09;;;-3.00;87.14
44926;BME280;30662;51.210;7.656;2023-02-28T06:49:31;148070.56;;;-3.06;87.68
44926;BME280;30662;51.210;7.656;2023-02-28T06:51:57;148086.84;;;-2.99;87.11
44926;BME280;30662;51.210;7.656;2023-02-28T06:54:23;148130.69;;;-2.81;85.61
44926;BME280;30662;51.210;7.656;2023-02-28T06:56:49;148129.44;;;-2.82;85.28
44926;BME280;30662;51.210;7.656;2023-02-28T06:59:16;148139.44;;;-2.78;85.44
44926;BME280;30662;51.210;7.656;2023-02-28T07:01:42;148156.97;;;-2.70;84.78
44926;BME280;30662;51.210;7.656;2023-02-28T07:04:08;148154.47;;;-2.71;84.62
44926;BME280;30662;51.210;7.656;2023-02-28T07:06:34;148155.72;;;-2.71;84.74
44926;BME280;30662;51.210;7.656;2023-02-28T07:09:00;148169.53;;;-2.65;82.55
44926;BME280;30662;51.210;7.656;2023-02-28T07:11:27;148192.06;;;-2.56;80.56
44926;BME280;30662;51.210;7.656;2023-02-28T07:13:57;148187.06;;;-2.58;80.88
44926;BME280;30662;51.210;7.656;2023-02-28T07:16:24;148198.31;;;-2.54;80.06
44926;BME280;30662;51.210;7.656;2023-02-28T07:18:52;148180.81;;;-2.61;80.28
44926;BME280;30662;51.210;7.656;2023-02-28T07:21:18;148200.84;;;-2.53;79.75
44926;BME280;30662;51.210;7.656;2023-02-28T07:23:44;148239.69;;;-2.37;80.40
44926;BME280;30662;51.210;7.656;2023-02-28T07:26:13;148238.44;;;-2.37;80.12
44926;BME280;30662;51.210;7.656;2023-02-28T07:28:45;148271.03;;;-2.24;79.47
44926;BME280;30662;51.210;7.656;2023-02-28T07:31:13;148272.28;;;-2.24;78.73
44926;BME280;30662;51.210;7.656;2023-02-28T07:33:43;148265.97;;;-2.26;80.00
44926;BME280;30662;51.210;7.656;2023-02-28T07:36:12;148301.06;;;-2.12;76.86
44926;BME280;30662;51.210;7.656;2023-02-28T07:38:47;148297.31;;;-2.13;77.04
44926;BME280;30662;51.210;7.656;2023-02-28T07:41:19;148306.13;;;-2.10;76.23
44926;BME280;30662;51.210;7.656;2023-02-28T07:43:45;148311.13;;;-2.08;75.24
44926;BME280;30662;51.210;7.656;2023-02-28T07:46:15;148338.66;;;-1.97;75.14
44926;BME280;30662;51.210;7.656;2023-02-28T07:48:42;148351.22;;;-1.91;74.33
44926;BME280;30662;51.210;7.656;2023-02-28T07:51:08;148360.03;;;-1.88;75.05
44926;BME280;30662;51.210;7.656;2023-02-28T07:53:34;148370.03;;;-1.84;75.16
44926;BME280;30662;51.210;7.656;2023-02-28T07:56:01;148383.81;;;-1.78;74.81
44926;BME280;30662;51.210;7.656;2023-02-28T07:58:28;148382.56;;;-1.79;74.23
44926;BME280;30662;51.210;7.656;2023-02-28T08:00:55;148410.13;;;-1.68;73.24
44926;BME280;30662;51.210;7.656;2023-02-28T08:03:22;148436.47;;;-1.57;71.93
44926;BME280;30662;51.210;7.656;2023-02-28T08:05:49;148406.38;;;-1.69;71.62
44926;BME280;30662;51.210;7.656;2023-02-28T08:08:16;148421.44;;;-1.63;71.69
44926;BME280;30662;51.210;7.656;2023-02-28T08:10:43;148450.28;;;-1.51;72.80
44926;BME280;30662;51.210;7.656;2023-02-28T08:13:09;148475.34;;;-1.41;71.42
44926;BME280;30662;51.210;7.656;2023-02-28T08:15:35;148514.22;;;-1.25;70.84
44926;BME280;30662;51.210;7.656;2023-02-28T08:18:02;148553.09;;;-1.09;69.86
44926;BME280;30662;51.210;7.656;2023-02-28T08:20:28;148565.66;;;-1.04;68.60
44926;BME280;30662;51.210;7.656;2023-02-28T08:22:54;148561.91;;;-1.06;67.38
44926;BME280;30662;51.210;7.656;2023-02-28T08:25:20;148605.78;;;-0.88;66.42
44926;BME280;30662;51.210;7.656;2023-02-28T08:27:45;148593.28;;;-0.93;66.34
44926;BME280;30662;51.210;7.656;2023-02-28T08:30:13;148615.84;;;-0.84;67.92
44926;BME280;30662;51.210;7.656;2023-02-28T08:32:40;148639.66;;;-0.74;68.38
44926;BME280;30662;51.210;7.656;2023-02-28T08:35:07;148674.81;;;-0.60;67.68
44926;BME280;30662;51.210;7.656;2023-02-28T08:37:35;148732.53;;;-0.37;65.91
44926;BME280;30662;51.210;7.656;2023-02-28T08:40:01;148733.84;;;-0.36;66.08
44926;BME280;30662;51.210;7.656;2023-02-28T08:42:26;148733.84;;;-0.36;67.25
44926;BME280;30662;51.210;7.656;2023-02-28T08:44:52;148720.00;;;-0.42;66.84
44926;BME280;30662;51.210;7.656;2023-02-28T08:47:18;148699.94;;;-0.50;67.37
44926;BME280;30662;51.210;7.656;2023-02-28T08:49:45;148697.38;;;-0.51;65.40
44926;BME280;30662;51.210;7.656;2023-02-28T08:52:11;148704.94;;;-0.48;64.73
44926;BME280;30662;51.210;7.656;2023-02-28T08:54:36;148701.19;;;-0.49;67.69
44926;BME280;30662;51.210;7.656;2023-02-28T08:57:03;148662.28;;;-0.65;66.93
44926;BME280;30662;51.210;7.656;2023-02-28T08:59:29;148689.88;;;-0.54;64.57
44926;BME280;30662;51.210;7.656;2023-02-28T09:01:55;148640.94;;;-0.74;64.89
44926;BME280;30662;51.210;7.656;2023-02-28T09:04:21;148652.22;;;-0.69;65.80
44926;BME280;30662;51.210;7.656;2023-02-28T09:06:50;148623.34;;;-0.81;65.86
44926;BME280;30662;51.210;7.656;2023-02-28T09:09:16;148609.59;;;-0.87;67.50
44926;BME280;30662;51.210;7.656;2023-02-28T09:11:42;148627.16;;;-0.79;67.35
44926;BME280;30662;51.210;7.656;2023-02-28T09:14:08;148630.91;;;-0.78;67.31
44926;BME280;30662;51.210;7.656;2023-02-28T09:16:34;148727.53;;;-0.39;65.83
44926;BME280;30662;51.210;7.656;2023-02-28T09:19:01;148747.59;;;-0.31;64.97
44926;BME280;30662;51.210;7.656;2023-02-28T09:21:27;148696.13;;;-0.51;65.42
44926;BME280;30662;51.210;7.656;2023-02-28T09:23:54;148713.72;;;-0.44;65.02
44926;BME280;30662;51.210;7.656;2023-02-28T09:26:25;148701.19;;;-0.49;64.73
44926;BME280;30662;51.210;7.656;2023-02-28T09:28:52;148730.03;;;-0.38;63.31
44926;BME280;30662;51.210;7.656;2023-02-28T09:31:22;148688.63;;;-0.54;63.75
44926;BME280;30662;51.210;7.656;2023-02-28T09:33:50;148676.06;;;-0.60;64.21
44926;BME280;30662;51.210;7.656;2023-02-28T09:36:17;148656.00;;;-0.68;63.23
44926;BME280;30662;51.210;7.656;2023-02-28T09:38:43;148682.38;;;-0.57;61.88
44926;BME280;30662;51.210;7.656;2023-02-28T09:41:22;148659.75;;;-0.66;62.15
44926;BME280;30662;51.210;7.656;2023-02-28T09:44:10;148642.19;;;-0.73;62.46
44926;BME280;30662;51.210;7.656;2023-02-28T09:46:44;148671.06;;;-0.62;63.56
44926;BME280;30662;51.210;7.656;2023-02-28T09:49:15;148706.19;;;-0.47;62.41
44926;BME280;30662;51.210;7.656;2023-02-28T09:54:15;148677.31;;;-0.59;61.93
44926;BME280;30662;51.210;7.656;2023-02-28T09:57:17;148725.03;;;-0.40;60.54
44926;BME280;30662;51.210;7.656;2023-02-28T10:00:33;148917.13;;;0.38;58.99
44926;BME280;30662;51.210;7.656;2023-02-28T10:05:41;148942.22;;;0.48;57.79
44926;BME280;30662;51.210;7.656;2023-02-28T10:08:24;148984.97;;;0.66;58.23
44926;BME280;30662;51.210;7.656;2023-02-28T10:10:55;148919.63;;;0.39;55.50
44926;BME280;30662;51.210;7.656;2023-02-28T10:13:36;148838.00;;;0.06;57.05
44926;BME280;30662;51.210;7.656;2023-02-28T10:16:12;148860.63;;;0.15;57.12
44926;BME280;30662;51.210;7.656;2023-02-28T10:18:46;148858.06;;;0.14;57.94
44926;BME280;30662;51.210;7.656;2023-02-28T10:21:18;148943.50;;;0.49;57.41
44926;BME280;30662;51.210;7.656;2023-02-28T10:23:46;148890.72;;;0.27;54.94
44926;BME280;30662;51.210;7.656;2023-02-28T10:26:16;148866.88;;;0.18;55.76
44926;BME280;30662;51.210;7.656;2023-02-28T10:28:42;148848.06;;;0.10;56.06
44926;BME280;30662;51.210;7.656;2023-02-28T10:31:17;149081.69;;;1.05;54.84
44926;BME280;30662;51.210;7.656;2023-02-28T10:33:44;149316.78;;;2.00;51.72
44926;BME280;30662;51.210;7.656;2023-02-28T10:36:14;149733.31;;;3.69;47.03
44926;BME280;30662;51.210;7.656;2023-02-28T10:38:40;150211.00;;;5.62;41.62
44926;BME280;30662;51.210;7.656;2023-02-28T10:41:16;150645.19;;;7.37;37.82
44926;BME280;30662;51.210;7.656;2023-02-28T10:43:45;151173.59;;;9.50;33.32
44926;BME280;30662;51.210;7.656;2023-02-28T10:46:16;151362.16;;;10.26;30.92
44926;BME280;30662;51.210;7.656;2023-02-28T10:49:03;151463.44;;;10.66;29.82
44926;BME280;30662;51.210;7.656;2023-02-28T10:51:36;151545.72;;;10.99;28.68
44926;BME280;30662;51.210;7.656;2023-02-28T10:54:03;151872.63;;;12.31;27.51
44926;BME280;30662;51.210;7.656;2023-02-28T10:56:31;152367.38;;;14.29;24.92
44926;BME280;30662;51.210;7.656;2023-02-28T10:59:01;152523.59;;;14.92;23.92
44926;BME280;30662;51.210;7.656;2023-02-28T11:01:45;152284.84;;;13.96;23.54
44926;BME280;30662;51.210;7.656;2023-02-28T11:07:19;152895.84;;;16.41;21.31
44926;BME280;30662;51.210;7.656;2023-02-28T11:09:50;153011.63;;;16.88;20.72
44926;BME280;30662;51.210;7.656;2023-02-28T11:14:55;153412.41;;;18.48;18.68
44926;BME280;30662;51.210;7.656;2023-02-28T11:17:25;153799.59;;;20.03;17.49
44926;BME280;30662;51.210;7.656;2023-02-28T11:19:58;153920.72;;;20.51;16.85
44926;BME280;30662;51.210;7.656;2023-02-28T11:22:28;153352.53;;;18.24;18.57
44926;BME280;30662;51.210;7.656;2023-02-28T11:25:01;153160.41;;;17.47;18.68
44926;BME280;30662;51.210;7.656;2023-02-28T11:30:00;153227.84;;;17.74;18.83
44926;BME280;30662;51.210;7.656;2023-02-28T11:32:28;153302.94;;;18.04;18.97
44926;BME280;30662;51.210;7.656;2023-02-28T11:37:38;153057.38;;;17.06;19.05
44926;BME280;30662;51.210;7.656;2023-02-28T11:40:12;153337.31;;;18.18;19.58
44926;BME280;30662;51.210;7.656;2023-02-28T11:48:28;153755.03;;;19.85;17.43
44926;BME280;30662;51.210;7.656;2023-02-28T11:51:18;153230.44;;;17.75;18.67
44926;BME280;30662;51.210;7.656;2023-02-28T11:56:42;153706.63;;;19.66;17.34
44926;BME280;30662;51.210;7.656;2023-02-28T12:02:05;154201.22;;;21.63;15.94
44926;BME280;30662;51.210;7.656;2023-02-28T12:05:20;154410.50;;;22.47;15.28
44926;BME280;30662;51.210;7.656;2023-02-28T12:14:46;154091.50;;;21.19;15.22
44926;BME280;30662;51.210;7.656;2023-02-28T12:17:28;154244.63;;;21.81;15.07
44926;BME280;30662;51.210;7.656;2023-02-28T12:28:17;154550.91;;;23.03;13.89
44926;BME280;30662;51.210;7.656;2023-02-28T12:31:00;154462.81;;;22.68;14.70
44926;BME280;30662;51.210;7.656;2023-02-28T12:33:33;154719.50;;;23.70;14.07
44926;BME280;30662;51.210;7.656;2023-02-28T12:36:05;154907.28;;;24.45;13.43
44926;BME280;30662;51.210;7.656;2023-02-28T12:38:48;154971.19;;;24.70;13.36
44926;BME280;30662;51.210;7.656;2023-02-28T12:41:19;155015.88;;;24.88;13.09
44926;BME280;30662;51.210;7.656;2023-02-28T12:44:15;154562.41;;;23.07;14.19
44926;BME280;30662;51.210;7.656;2023-02-28T12:46:55;154475.56;;;22.73;14.33
44926;BME280;30662;51.210;7.656;2023-02-28T12:49:29;154627.53;;;23.33;14.01
44926;BME280;30662;51.210;7.656;2023-02-28T12:51:59;154262.47;;;21.88;15.29
44926;BME280;30662;51.210;7.656;2023-02-28T12:54:42;153913.03;;;20.48;16.47
44926;BME280;30662;51.210;7.656;2023-02-28T12:57:15;154299.47;;;22.02;15.38
44926;BME280;30662;51.210;7.656;2023-02-28T12:59:53;154317.38;;;22.10;14.60
44926;BME280;30662;51.210;7.656;2023-02-28T13:02:42;154233.13;;;21.76;15.14
44926;BME280;30662;51.210;7.656;2023-02-28T13:05:32;154007.41;;;20.86;16.13
44926;BME280;30662;51.210;7.656;2023-02-28T13:11:02;154358.19;;;22.26;15.13
44926;BME280;30662;51.210;7.656;2023-02-28T13:13:32;153950.00;;;20.63;15.42
44926;BME280;30662;51.210;7.656;2023-02-28T13:16:08;153865.88;;;20.29;16.69
44926;BME280;30662;51.210;7.656;2023-02-28T13:18:44;154094.06;;;21.20;15.90
44926;BME280;30662;51.210;7.656;2023-02-28T13:21:26;154302.00;;;22.03;14.92
44926;BME280;30662;51.210;7.656;2023-02-28T13:29:04;153124.78;;;17.33;18.36
44926;BME280;30662;51.210;7.656;2023-02-28T13:34:35;153621.22;;;19.32;17.36
44926;BME280;30662;51.210;7.656;2023-02-28T13:47:42;152869.19;;;16.31;20.90
44926;BME280;30662;51.210;7.656;2023-02-28T14:01:14;151634.38;;;11.35;26.17
44926;BME280;30662;51.210;7.656;2023-02-28T14:06:29;151310.22;;;10.05;28.75
44926;BME280;30662;51.210;7.656;2023-02-28T14:09:06;151230.50;;;9.73;29.46
44926;BME280;30662;51.210;7.656;2023-02-28T14:11:43;151105.28;;;9.22;29.93
44926;BME280;30662;51.210;7.656;2023-02-28T14:15:18;150894.13;;;8.37;31.00
44926;BME280;30662;51.210;7.656;2023-02-28T14:17:16;150737.38;;;7.74;32.32
44926;BME280;30662;51.210;7.656;2023-02-28T14:19:46;150627.50;;;7.30;34.13
44926;BME280;30662;51.210;7.656;2023-02-28T14:25:22;150479.78;;;6.70;35.18
44926;BME280;30662;51.210;7.656;2023-02-28T14:28:18;150419.22;;;6.46;36.54
44926;BME280;30662;51.210;7.656;2023-02-28T14:30:57;150267.75;;;5.85;37.06
44926;BME280;30662;51.210;7.656;2023-02-28T14:36:21;150227.41;;;5.68;38.56
44926;BME280;30662;51.210;7.656;2023-02-28T14:38:52;150195.84;;;5.56;39.00
44926;BME280;30662;51.210;7.656;2023-02-28T14:41:39;150170.66;;;5.45;38.95
44926;BME280;30662;51.210;7.656;2023-02-28T14:44:22;150134.06;;;5.31;39.28
44926;BME280;30662;51.210;7.656;2023-02-28T14:46:52;150071.00;;;5.05;39.73
44926;BME280;30662;51.210;7.656;2023-02-28T14:49:44;150063.47;;;5.02;41.12
44926;BME280;30662;51.210;7.656;2023-02-28T14:52:28;150055.88;;;4.99;40.80
44926;BME280;30662;51.210;7.656;2023-02-28T14:55:04;150021.88;;;4.85;40.62
44926;BME280;30662;51.210;7.656;2023-02-28T14:57:39;149976.50;;;4.67;41.06
44926;BME280;30662;51.210;7.656;2023-02-28T15:00:29;149965.13;;;4.62;42.02
44926;BME280;30662;51.210;7.656;2023-02-28T15:02:56;149947.47;;;4.55;42.19
44926;BME280;30662;51.210;7.656;2023-02-28T15:05:33;149854.25;;;4.18;42.64
44926;BME280;30662;51.210;7.656;2023-02-28T15:08:03;149876.91;;;4.27;42.88
44926;BME280;30662;51.210;7.656;2023-02-28T15:10:29;149909.69;;;4.40;43.52
44926;BME280;30662;51.210;7.656;2023-02-28T15:13:07;149878.19;;;4.27;43.35